Terminal Aerodrome Forecast
Issued by NWS Cleveland, OH

Home | Current Version | Previous Version | Graphics & Text | Print | Product List | Glossary On
Versions: 1 2 3 4 5 6 7 8 9 10 11 12 13 14 15 16 17
426
FTUS41 KCLE 201456 AAA
TAFYNG
TAF AMD
KYNG 201456Z 2015/2112 26012G18KT P6SM BKN040
     FM202300 26007KT P6SM SCT050 BKN150
     FM210400 23004KT P6SM VCSH BKN060=

USA.gov is the U.S. government's official web portal to all federal, state and local government web resources and services.